Proctor, Arkansas
Current Conditions -  °F | °C
As of 1:53 PM on Saturday 25 Oct 2014 (Local Time) from KAWM Reporting Station
Clear Clear  
Wind Chill: 82°   Ceiling: Unl
Heat Index: 83°   Visibility: 10mi
Dew Point: 64°   Wind: 3mph
Humidity: 54%   Direction: NA
Pressure: 30.02"   Gusts: NA
Location:  35.09°N, 90.37°W
Report Text: KAWM 251853Z AUTO VRB03KT 10SM CLR 28/18 A3002 RMK AO2 SLP163 T02780178
Loading
Personal Weather Stations






























Interactive Weather Map
Tropical Storm Tracking
New forecast layout! Learn more

10-Day Weather Forecast

Advertisements
Track Severe Weather on mobile